createdAt,value
2023-01-12T00:03:28.009Z,89.88
2023-01-12T00:08:24.981Z,89.89
2023-01-12T00:13:22.095Z,90.00
2023-01-12T00:18:19.808Z,89.77
2023-01-12T00:23:16.844Z,89.81
2023-01-12T00:28:13.780Z,90.96
2023-01-12T00:33:10.817Z,90.27
2023-01-12T00:38:08.537Z,90.15
2023-01-12T00:43:23.699Z,89.81
2023-01-12T00:48:20.652Z,89.87
2023-01-12T00:53:18.657Z,89.73
2023-01-12T00:58:15.634Z,89.36
2023-01-12T01:03:12.528Z,89.77
2023-01-12T01:08:09.563Z,89.81
2023-01-12T01:13:07.259Z,89.93
2023-01-12T01:18:04.306Z,90.15
2023-01-12T01:23:01.251Z,90.27
2023-01-12T01:27:58.318Z,89.58
2023-01-12T01:32:56.079Z,88.91
2023-01-12T01:37:53.243Z,88.85
2023-01-12T01:42:50.369Z,88.81
2023-01-12T01:47:51.519Z,88.65
2023-01-12T01:52:53.020Z,89.57
2023-01-12T01:57:54.828Z,90.73
2023-01-12T02:02:52.987Z,90.37
2023-01-12T02:07:52.043Z,90.13
2023-01-12T02:13:08.423Z,89.58
2023-01-12T02:18:17.657Z,90.26
2023-01-12T02:23:41.402Z,90.92
2023-01-12T02:29:20.043Z,90.16
2023-01-12T02:34:28.124Z,90.20
2023-01-12T02:39:29.649Z,90.16
2023-01-12T02:44:32.892Z,89.24
2023-01-12T02:49:35.087Z,89.81
2023-01-12T02:54:35.078Z,89.85
2023-01-12T02:59:34.562Z,89.84
2023-01-12T03:04:33.168Z,90.13
2023-01-12T03:09:37.023Z,90.64
2023-01-12T03:14:37.355Z,90.46
2023-01-12T03:19:36.074Z,89.60
2023-01-12T03:24:37.776Z,89.88
2023-01-12T03:29:38.060Z,89.36
2023-01-12T03:34:37.489Z,89.84
2023-01-12T03:39:42.338Z,89.54
2023-01-12T03:44:46.545Z,90.32
2023-01-12T03:49:47.210Z,90.11
2023-01-12T03:54:47.495Z,90.53
2023-01-12T03:59:44.596Z,90.22
2023-01-12T04:04:41.833Z,90.29
2023-01-12T04:09:39.640Z,90.35
2023-01-12T04:14:36.734Z,90.68
2023-01-12T04:19:33.977Z,91.15
2023-01-12T04:24:34.511Z,90.78
2023-01-12T04:29:32.738Z,89.97
2023-01-12T04:34:30.465Z,90.48
2023-01-12T04:39:27.722Z,90.40
2023-01-12T04:44:24.882Z,90.76
2023-01-12T04:49:22.712Z,91.09
2023-01-12T04:54:19.652Z,90.80
2023-01-12T04:59:16.804Z,90.12
2023-01-12T05:04:14.824Z,90.10
2023-01-12T05:09:31.071Z,90.66
2023-01-12T05:14:31.009Z,90.61
2023-01-12T05:19:28.132Z,90.45
2023-01-12T05:24:27.264Z,90.36
2023-01-12T05:29:25.035Z,91.04
2023-01-12T05:34:25.838Z,91.31
2023-01-12T05:39:23.188Z,91.48
2023-01-12T05:44:21.451Z,91.11
2023-01-12T05:49:18.788Z,91.10
2023-01-12T05:54:17.362Z,91.01
2023-01-12T05:59:24.771Z,89.92
2023-01-12T06:04:27.706Z,90.03
2023-01-12T06:09:25.279Z,89.22
2023-01-12T06:14:30.580Z,88.53
2023-01-12T06:19:29.057Z,88.55
2023-01-12T06:24:33.509Z,88.61
2023-01-12T06:30:06.961Z,89.22
2023-01-12T06:35:27.098Z,89.09
2023-01-12T06:40:37.249Z,88.53
2023-01-12T06:45:45.466Z,88.58
2023-01-12T06:50:43.477Z,88.27
2023-01-12T06:55:49.583Z,88.66
2023-01-12T07:00:49.872Z,88.62
2023-01-12T07:05:53.778Z,88.50
2023-01-12T07:10:51.318Z,88.30
2023-01-12T07:15:48.682Z,87.77
2023-01-12T07:20:49.387Z,87.52
2023-01-12T07:25:47.501Z,87.10
2023-01-12T07:30:44.881Z,87.03
2023-01-12T07:36:17.913Z,86.73
2023-01-12T07:41:30.462Z,86.32
2023-01-12T07:46:38.208Z,85.92
2023-01-12T07:51:36.418Z,86.66
2023-01-12T07:56:44.229Z,86.20
2023-01-12T08:01:43.802Z,86.44
2023-01-12T08:06:40.900Z,86.43
2023-01-12T08:11:42.561Z,86.30
2023-01-12T08:16:46.570Z,87.29
2023-01-12T08:21:49.361Z,86.71
2023-01-12T08:26:51.090Z,86.93
2023-01-12T08:31:48.117Z,86.28
2023-01-12T08:36:45.029Z,86.83
2023-01-12T08:41:41.984Z,86.13
2023-01-12T08:46:46.975Z,86.72
2023-01-12T08:51:45.275Z,86.31
2023-01-12T08:56:42.441Z,86.36
2023-01-12T09:01:41.654Z,86.00
2023-01-12T09:06:40.906Z,86.20
2023-01-12T09:11:41.061Z,86.08
2023-01-12T09:16:39.580Z,86.44
2023-01-12T09:21:38.913Z,86.20
2023-01-12T09:26:39.166Z,85.53
2023-01-12T09:31:37.831Z,84.97
2023-01-12T09:36:37.121Z,85.63
2023-01-12T09:41:56.028Z,85.31
2023-01-12T09:46:59.876Z,84.89
2023-01-12T09:52:02.260Z,85.08
2023-01-12T09:57:08.096Z,85.71
2023-01-12T10:02:10.973Z,85.75
2023-01-12T10:07:15.052Z,85.21
2023-01-12T10:12:20.535Z,85.88
2023-01-12T10:17:38.591Z,85.37
2023-01-12T10:22:46.543Z,85.05
2023-01-12T10:27:45.848Z,85.18
2023-01-12T10:32:42.850Z,85.70
2023-01-12T10:37:44.938Z,85.41
2023-01-12T10:43:15.724Z,86.14
2023-01-12T10:48:21.056Z,86.26
2023-01-12T10:53:28.692Z,86.25
2023-01-12T10:58:29.153Z,86.20
2023-01-12T11:03:33.298Z,86.44
2023-01-12T11:08:32.108Z,85.93
2023-01-12T11:13:32.578Z,85.43
2023-01-12T11:18:38.723Z,85.31
2023-01-12T11:23:42.295Z,85.25
2023-01-12T11:28:51.029Z,84.64
2023-01-12T11:33:56.713Z,84.40
2023-01-12T11:39:01.841Z,84.02
2023-01-12T11:44:05.278Z,83.91
2023-01-12T11:49:10.793Z,83.30
2023-01-12T11:54:18.543Z,83.18
2023-01-12T11:59:24.795Z,83.74
2023-01-12T12:04:44.558Z,84.07
2023-01-12T12:10:15.103Z,84.16
2023-01-12T12:15:29.164Z,84.27
2023-01-12T12:20:34.101Z,84.25
2023-01-12T12:25:44.268Z,84.43
2023-01-12T12:31:01.241Z,84.09
2023-01-12T12:36:11.419Z,83.86
2023-01-12T12:41:40.186Z,83.92
2023-01-12T12:46:49.747Z,83.37
2023-01-12T12:51:47.230Z,83.34
2023-01-12T12:56:48.862Z,83.80
2023-01-12T13:01:56.136Z,83.82
2023-01-12T13:06:54.113Z,83.25
2023-01-12T13:11:53.669Z,83.33
2023-01-12T13:16:52.824Z,83.08
2023-01-12T13:21:57.425Z,83.16
2023-01-12T13:26:58.215Z,83.08
2023-01-12T13:31:58.853Z,83.23
2023-01-12T13:37:11.216Z,83.02
2023-01-12T13:42:35.313Z,82.78
2023-01-12T13:47:33.542Z,83.56
2023-01-12T13:52:33.436Z,83.06
2023-01-12T13:57:32.148Z,83.15
2023-01-12T14:02:31.612Z,82.79
2023-01-12T14:07:41.493Z,83.00
2023-01-12T14:12:56.456Z,83.35
2023-01-12T14:18:02.095Z,83.08
2023-01-12T14:23:20.757Z,83.06
2023-01-12T14:28:21.478Z,83.31
2023-01-12T14:33:20.508Z,83.32
2023-01-12T14:38:19.175Z,83.19
2023-01-12T14:43:35.463Z,83.20
2023-01-12T14:48:33.917Z,83.17
2023-01-12T14:53:38.517Z,82.95
2023-01-12T14:58:35.704Z,83.01
2023-01-12T15:03:43.091Z,83.17
2023-01-12T15:08:52.976Z,82.93
2023-01-12T15:13:55.918Z,83.53
2023-01-12T15:19:11.065Z,83.16
2023-01-12T15:24:39.193Z,83.16
2023-01-12T15:29:36.090Z,83.45
2023-01-12T15:34:33.985Z,83.54
2023-01-12T15:39:31.019Z,83.58
2023-01-12T15:44:27.932Z,83.36
2023-01-12T15:49:25.057Z,83.35
2023-01-12T15:54:22.728Z,83.43
2023-01-12T15:59:19.760Z,83.49
2023-01-12T16:09:40.528Z,83.75
2023-01-12T16:14:37.664Z,83.46
2023-01-12T16:19:40.611Z,83.29
2023-01-12T16:24:39.347Z,83.52
2023-01-12T16:29:36.530Z,83.00
2023-01-12T16:34:34.143Z,83.14
2023-01-12T16:40:18.118Z,83.28
2023-01-12T16:45:28.051Z,83.59
2023-01-12T16:50:26.629Z,83.85
2023-01-12T16:56:25.391Z,83.74
2023-01-12T17:01:26.347Z,83.85
2023-01-12T17:06:36.705Z,83.48
2023-01-12T17:11:41.658Z,83.64
2023-01-12T17:17:25.791Z,83.68
2023-01-12T17:22:41.893Z,84.01
2023-01-12T17:27:42.740Z,83.93
2023-01-12T17:32:56.231Z,83.72
2023-01-12T17:37:57.452Z,83.83
2023-01-12T17:43:25.459Z,84.24
2023-01-12T17:48:27.719Z,83.98
2023-01-12T17:53:25.556Z,83.58
2023-01-12T17:58:25.105Z,83.63
2023-01-12T18:03:41.354Z,84.17
2023-01-12T18:08:55.858Z,83.92
2023-01-12T18:13:53.958Z,83.88
2023-01-12T18:19:08.715Z,83.96
2023-01-12T18:24:12.365Z,84.01
2023-01-12T18:29:12.881Z,83.76
2023-01-12T18:34:11.834Z,83.77
2023-01-12T18:39:16.419Z,83.79
2023-01-12T18:44:17.082Z,83.92
2023-01-12T18:49:21.506Z,84.04
2023-01-12T18:54:32.141Z,83.79
2023-01-12T18:59:42.096Z,83.90
2023-01-12T19:05:16.046Z,83.48
2023-01-12T19:10:29.107Z,83.62
2023-01-12T19:15:51.221Z,83.84
2023-01-12T19:21:26.230Z,83.44
2023-01-12T19:26:44.115Z,83.46
2023-01-12T19:31:53.105Z,83.62
2023-01-12T19:36:59.007Z,83.79
2023-01-12T19:42:20.322Z,83.77
2023-01-12T19:47:17.867Z,83.73
2023-01-12T19:52:28.770Z,83.56
2023-01-12T19:57:26.451Z,83.73
2023-01-12T20:02:28.090Z,83.79
2023-01-12T20:07:30.118Z,83.94
2023-01-12T20:12:29.189Z,83.72
2023-01-12T20:17:27.031Z,83.94
2023-01-12T20:22:24.730Z,84.01
2023-01-12T20:27:24.993Z,83.76
2023-01-12T20:32:23.503Z,84.07
2023-01-12T20:37:26.450Z,83.61
2023-01-12T20:42:25.824Z,84.34
2023-01-12T20:47:36.389Z,84.31
2023-01-12T20:52:39.694Z,83.81
2023-01-12T20:57:47.404Z,84.02
2023-01-12T21:02:47.724Z,84.13
2023-01-12T21:07:48.676Z,83.85
2023-01-12T21:12:53.249Z,83.85
2023-01-12T21:17:53.297Z,83.45
2023-01-12T21:22:50.985Z,83.84
2023-01-12T21:27:50.690Z,83.72
2023-01-12T21:32:52.160Z,83.52
2023-01-12T21:37:52.603Z,83.37
2023-01-12T21:43:12.025Z,83.61
2023-01-12T21:48:15.712Z,83.64
2023-01-12T21:53:15.964Z,83.73
2023-01-12T21:58:20.085Z,83.71
2023-01-12T22:03:25.428Z,83.19
2023-01-12T22:08:22.836Z,83.34
2023-01-12T22:13:21.096Z,83.68
2023-01-12T22:18:20.519Z,83.23
2023-01-12T22:23:20.873Z,83.62
2023-01-12T22:28:18.419Z,83.25
2023-01-12T22:33:16.600Z,83.30
2023-01-12T22:38:14.089Z,83.27
2023-01-12T22:43:26.610Z,83.36
2023-01-12T22:48:25.574Z,83.00
2023-01-12T22:53:24.825Z,83.16
2023-01-12T22:58:22.077Z,83.55
2023-01-12T23:03:19.736Z,83.27
2023-01-12T23:08:20.143Z,83.10
2023-01-12T23:13:19.975Z,83.23
2023-01-12T23:18:19.715Z,83.16
2023-01-12T23:23:18.264Z,83.17
2023-01-12T23:28:17.365Z,82.75
2023-01-12T23:33:14.855Z,83.03
2023-01-12T23:38:15.541Z,82.77
2023-01-12T23:43:13.800Z,82.99
2023-01-12T23:48:10.949Z,83.21
2023-01-12T23:53:08.171Z,83.10
2023-01-12T23:58:06.016Z,83.23
